createdAt,value
2022-12-26T00:02:28.823Z,93.80
2022-12-26T00:05:18.944Z,93.50
2022-12-26T00:08:08.135Z,94.30
2022-12-26T00:10:57.133Z,93.70
2022-12-26T00:13:46.353Z,93.60
2022-12-26T00:16:35.121Z,93.70
2022-12-26T00:19:23.743Z,94.00
2022-12-26T00:22:15.889Z,95.00
2022-12-26T00:25:04.666Z,96.20
2022-12-26T00:27:53.344Z,96.50
2022-12-26T00:30:41.963Z,96.30
2022-12-26T00:33:30.684Z,96.70
2022-12-26T00:36:22.628Z,96.30
2022-12-26T00:39:12.957Z,96.20
2022-12-26T00:42:01.593Z,95.80
2022-12-26T00:44:50.137Z,95.80
2022-12-26T00:47:38.749Z,95.50
2022-12-26T00:50:34.242Z,95.20
2022-12-26T00:53:24.024Z,95.30
2022-12-26T00:56:14.419Z,95.50
2022-12-26T00:59:03.002Z,93.80
2022-12-26T01:01:51.889Z,93.70
2022-12-26T01:04:40.523Z,93.80
2022-12-26T01:07:29.124Z,92.10
2022-12-26T01:10:17.705Z,91.70
2022-12-26T01:13:07.705Z,92.40
2022-12-26T01:15:56.349Z,92.70
2022-12-26T01:18:44.965Z,93.50
2022-12-26T01:21:33.613Z,94.20
2022-12-26T01:24:22.205Z,94.70
2022-12-26T01:27:10.826Z,94.70
2022-12-26T01:30:00.752Z,94.20
2022-12-26T01:32:49.307Z,94.60
2022-12-26T01:35:37.861Z,93.70
2022-12-26T01:38:26.491Z,94.40
2022-12-26T01:41:20.111Z,94.70
2022-12-26T01:44:47.623Z,94.20
2022-12-26T01:47:44.666Z,93.70
2022-12-26T01:50:43.120Z,92.60
2022-12-26T01:53:34.186Z,91.70
2022-12-26T01:56:26.381Z,91.40
2022-12-26T01:59:19.110Z,91.00
2022-12-26T02:02:08.173Z,91.20
2022-12-26T02:05:16.568Z,92.00
2022-12-26T02:08:10.489Z,91.90
2022-12-26T02:11:06.244Z,92.30
2022-12-26T02:13:54.988Z,93.30
2022-12-26T02:16:43.674Z,92.80
2022-12-26T02:19:40.756Z,92.20
2022-12-26T02:23:22.943Z,92.20
2022-12-26T02:26:57.282Z,92.00
2022-12-26T02:30:15.213Z,91.80
2022-12-26T02:33:18.462Z,92.30
2022-12-26T02:36:20.288Z,92.50
2022-12-26T02:39:45.663Z,91.60
2022-12-26T02:42:42.524Z,91.20
2022-12-26T02:45:53.386Z,91.90
2022-12-26T02:48:53.372Z,92.40
2022-12-26T02:52:10.669Z,93.50
2022-12-26T02:55:23.823Z,93.60
2022-12-26T02:58:37.817Z,93.10
2022-12-26T03:01:49.464Z,92.40
2022-12-26T03:04:59.325Z,92.70
2022-12-26T03:08:06.027Z,92.70
2022-12-26T03:11:14.565Z,92.30
2022-12-26T03:14:11.167Z,92.30
2022-12-26T03:17:21.713Z,92.90
2022-12-26T03:20:15.264Z,92.80
2022-12-26T03:23:09.332Z,93.20
2022-12-26T03:26:17.610Z,93.00
2022-12-26T03:29:23.475Z,93.20
2022-12-26T03:32:13.965Z,93.90
2022-12-26T03:35:02.682Z,94.90
2022-12-26T03:37:57.202Z,95.00
2022-12-26T03:41:13.571Z,95.00
2022-12-26T03:44:31.394Z,94.70
2022-12-26T03:47:41.542Z,95.90
2022-12-26T03:50:54.124Z,96.40
2022-12-26T03:54:06.952Z,96.40
2022-12-26T03:57:17.121Z,95.70
2022-12-26T04:00:26.193Z,94.60
2022-12-26T04:03:33.358Z,91.40
2022-12-26T04:06:43.072Z,91.60
2022-12-26T04:09:54.873Z,91.50
2022-12-26T04:13:04.309Z,91.40
2022-12-26T04:16:15.326Z,90.50
2022-12-26T04:19:26.271Z,89.30
2022-12-26T04:22:39.492Z,87.50
2022-12-26T04:25:54.151Z,87.70
2022-12-26T04:29:00.375Z,88.30
2022-12-26T04:32:12.849Z,88.50
2022-12-26T04:35:24.484Z,86.30
2022-12-26T04:38:34.842Z,86.30
2022-12-26T04:41:44.951Z,87.50
2022-12-26T04:44:36.281Z,86.20
2022-12-26T04:47:24.860Z,86.70
2022-12-26T04:50:12.367Z,87.90
2022-12-26T04:53:01.309Z,86.30
2022-12-26T04:55:50.077Z,85.50
2022-12-26T04:58:40.478Z,84.20
2022-12-26T05:01:46.463Z,83.50
2022-12-26T05:04:52.479Z,83.50
2022-12-26T05:07:58.711Z,83.30
2022-12-26T05:10:47.442Z,84.30
2022-12-26T05:13:36.140Z,84.70
2022-12-26T05:16:45.121Z,84.60
2022-12-26T05:19:51.222Z,85.10
2022-12-26T05:23:00.150Z,85.90
2022-12-26T05:26:07.263Z,84.70
2022-12-26T05:29:00.174Z,84.20
2022-12-26T05:31:50.240Z,83.70
2022-12-26T05:34:37.783Z,83.20
2022-12-26T05:37:26.398Z,84.90
2022-12-26T05:40:15.081Z,83.70
2022-12-26T05:43:03.627Z,82.90
2022-12-26T05:45:52.496Z,82.60
2022-12-26T05:48:42.741Z,83.00
2022-12-26T05:51:31.327Z,83.80
2022-12-26T05:54:20.082Z,83.30
2022-12-26T05:57:08.624Z,82.70
2022-12-26T05:59:57.207Z,82.70
2022-12-26T06:02:45.882Z,82.80
2022-12-26T06:05:35.902Z,82.00
2022-12-26T06:08:24.562Z,82.20
2022-12-26T06:11:14.653Z,81.10
2022-12-26T06:14:04.843Z,80.90
2022-12-26T06:16:53.557Z,80.80
2022-12-26T06:19:46.661Z,80.80
2022-12-26T06:22:37.038Z,80.40
2022-12-26T06:25:25.665Z,80.10
2022-12-26T06:28:14.291Z,80.60
2022-12-26T06:31:07.126Z,79.70
2022-12-26T06:33:58.704Z,77.90
2022-12-26T06:36:47.305Z,78.30
2022-12-26T06:39:37.476Z,77.70
2022-12-26T06:42:26.140Z,77.20
2022-12-26T06:45:14.745Z,80.40
2022-12-26T06:48:03.577Z,86.10
2022-12-26T06:50:52.194Z,91.80
2022-12-26T06:53:40.865Z,95.50
2022-12-26T06:56:31.665Z,99.90
2022-12-26T06:59:20.214Z,99.90
2022-12-26T07:02:11.804Z,99.90
2022-12-26T07:05:00.501Z,99.90
2022-12-26T07:07:52.648Z,99.90
2022-12-26T07:10:41.249Z,99.90
2022-12-26T07:13:31.586Z,99.90
2022-12-26T07:16:20.354Z,99.90
2022-12-26T07:19:09.346Z,99.90
2022-12-26T07:21:57.926Z,99.90
2022-12-26T07:24:47.363Z,99.90
2022-12-26T07:27:37.361Z,99.90
2022-12-26T07:30:27.324Z,99.90
2022-12-26T07:33:15.924Z,99.90
2022-12-26T07:36:06.191Z,99.90
2022-12-26T07:38:54.825Z,99.90
2022-12-26T07:42:01.504Z,99.90
2022-12-26T07:44:50.043Z,99.90
2022-12-26T07:47:39.974Z,99.90
2022-12-26T07:50:29.504Z,99.90
2022-12-26T07:53:18.086Z,99.90
2022-12-26T07:56:07.558Z,99.90
2022-12-26T07:58:56.093Z,99.90
2022-12-26T08:01:45.151Z,99.90
2022-12-26T08:04:35.224Z,99.90
2022-12-26T08:07:23.903Z,99.90
2022-12-26T08:10:12.527Z,99.90
2022-12-26T08:13:01.062Z,99.90
2022-12-26T08:15:49.643Z,99.90
2022-12-26T08:18:38.518Z,99.90
2022-12-26T08:21:28.493Z,99.90
2022-12-26T08:24:23.687Z,99.90
2022-12-26T08:30:12.130Z,99.90
2022-12-26T08:33:01.087Z,99.90
2022-12-26T08:35:50.077Z,99.90
2022-12-26T08:38:41.055Z,99.90
2022-12-26T08:41:29.646Z,99.90
2022-12-26T08:44:27.260Z,99.90
2022-12-26T08:50:03.995Z,99.90
2022-12-26T08:52:52.785Z,99.90
2022-12-26T08:55:52.988Z,99.90
2022-12-26T09:01:39.136Z,99.90
2022-12-26T09:04:27.803Z,99.90
2022-12-26T09:07:16.402Z,99.90
2022-12-26T09:10:06.665Z,99.90
2022-12-26T09:12:56.664Z,99.90
2022-12-26T09:15:45.236Z,99.90
2022-12-26T09:21:17.664Z,99.90
2022-12-26T09:24:08.552Z,99.90
2022-12-26T09:26:57.094Z,99.90
2022-12-26T09:29:47.022Z,99.90
2022-12-26T09:32:35.783Z,99.90
2022-12-26T09:35:25.012Z,99.90
2022-12-26T09:38:13.592Z,99.90
2022-12-26T09:41:15.803Z,99.90
2022-12-26T09:44:19.923Z,99.90
2022-12-26T09:47:30.511Z,99.90
2022-12-26T09:50:42.986Z,99.90
2022-12-26T09:53:36.385Z,99.90
2022-12-26T09:59:44.719Z,99.90
2022-12-26T10:02:35.264Z,99.90
2022-12-26T10:05:35.417Z,99.90
2022-12-26T10:08:29.965Z,99.90
2022-12-26T10:11:31.341Z,99.90
2022-12-26T10:14:28.184Z,99.90
2022-12-26T10:17:36.956Z,99.90
2022-12-26T10:20:35.575Z,98.90
2022-12-26T10:23:34.936Z,99.40
2022-12-26T10:26:26.503Z,99.70
2022-12-26T10:29:22.016Z,99.90
2022-12-26T10:32:15.544Z,98.70
2022-12-26T10:35:19.793Z,97.90
2022-12-26T10:38:17.008Z,97.10
2022-12-26T10:41:12.230Z,97.10
2022-12-26T10:44:00.843Z,96.80
2022-12-26T10:47:04.603Z,95.40
2022-12-26T10:49:53.819Z,94.90
2022-12-26T10:52:43.072Z,93.30
2022-12-26T10:55:35.172Z,94.10
2022-12-26T10:58:29.879Z,94.90
2022-12-26T11:01:35.705Z,95.10
2022-12-26T11:07:37.534Z,94.40
2022-12-26T11:10:30.254Z,93.10
2022-12-26T11:13:23.251Z,93.30
2022-12-26T11:16:11.983Z,95.20
2022-12-26T11:19:01.067Z,94.60
2022-12-26T11:21:49.672Z,94.80
2022-12-26T11:24:38.374Z,93.50
2022-12-26T11:27:26.965Z,93.60
2022-12-26T11:30:29.518Z,93.70
2022-12-26T11:33:25.131Z,91.90
2022-12-26T11:36:23.199Z,93.90
2022-12-26T11:39:24.182Z,93.30
2022-12-26T11:42:14.568Z,92.70
2022-12-26T11:45:12.577Z,90.30
2022-12-26T11:48:02.976Z,90.30
2022-12-26T11:50:52.381Z,89.40
2022-12-26T11:53:40.947Z,88.90
2022-12-26T11:56:30.105Z,89.80
2022-12-26T11:59:23.758Z,90.20
2022-12-26T12:02:28.170Z,89.60
2022-12-26T12:05:38.342Z,90.40
2022-12-26T12:08:40.518Z,91.40
2022-12-26T12:11:36.656Z,92.90
2022-12-26T12:14:38.145Z,89.40
2022-12-26T12:17:32.217Z,90.40
2022-12-26T12:20:37.403Z,90.00
2022-12-26T12:23:51.395Z,89.10
2022-12-26T12:26:51.161Z,87.80
2022-12-26T12:30:09.834Z,87.60
2022-12-26T12:33:15.304Z,87.90
2022-12-26T12:36:12.191Z,84.70
2022-12-26T12:39:06.590Z,86.80
2022-12-26T12:42:11.107Z,87.00
2022-12-26T12:45:21.671Z,87.50
2022-12-26T12:48:29.839Z,88.80
2022-12-26T12:51:28.549Z,91.10
2022-12-26T12:54:42.670Z,93.70
2022-12-26T12:57:43.708Z,97.30
2022-12-26T13:00:40.726Z,99.90
2022-12-26T13:03:34.387Z,99.90
2022-12-26T13:06:38.042Z,99.90
2022-12-26T13:09:32.076Z,99.90
2022-12-26T13:12:24.265Z,99.90
2022-12-26T13:15:25.145Z,99.90
2022-12-26T13:18:18.776Z,99.90
2022-12-26T13:21:11.521Z,99.90
2022-12-26T13:24:24.881Z,99.90
2022-12-26T13:27:21.542Z,99.00
2022-12-26T13:30:15.480Z,98.00
2022-12-26T13:33:04.421Z,97.80
2022-12-26T13:35:57.360Z,96.40
2022-12-26T13:39:30.742Z,96.40
2022-12-26T13:42:45.748Z,96.40
2022-12-26T13:45:49.150Z,97.20
2022-12-26T13:49:26.988Z,97.40
2022-12-26T13:52:32.798Z,99.30
2022-12-26T13:55:44.739Z,99.00
2022-12-26T13:58:51.137Z,99.50
2022-12-26T14:01:53.684Z,98.50
2022-12-26T14:04:56.868Z,98.70
2022-12-26T14:07:55.042Z,98.20
2022-12-26T14:10:58.257Z,98.90
2022-12-26T14:14:01.758Z,99.30
2022-12-26T14:16:55.380Z,99.10
2022-12-26T14:19:52.230Z,98.40
2022-12-26T14:22:52.919Z,98.80
2022-12-26T14:25:54.630Z,99.50
2022-12-26T14:28:56.618Z,99.90
2022-12-26T14:31:56.267Z,99.90
2022-12-26T14:34:57.310Z,99.90
2022-12-26T14:37:54.161Z,99.90
2022-12-26T14:41:00.162Z,99.90
2022-12-26T14:43:49.383Z,99.90
2022-12-26T14:47:04.368Z,99.90
2022-12-26T14:49:53.469Z,99.90
2022-12-26T14:52:43.419Z,99.90
2022-12-26T14:55:54.632Z,99.90
2022-12-26T14:58:44.152Z,99.90
2022-12-26T15:01:49.660Z,99.90
2022-12-26T15:04:57.840Z,99.90
2022-12-26T15:08:21.929Z,99.90
2022-12-26T15:11:39.427Z,99.90
2022-12-26T15:14:55.111Z,99.30
2022-12-26T15:17:51.473Z,98.50
2022-12-26T15:21:10.757Z,98.00
2022-12-26T15:25:16.918Z,98.40
2022-12-26T15:28:21.556Z,97.70
2022-12-26T15:31:31.007Z,97.40
2022-12-26T15:34:42.036Z,98.80
2022-12-26T15:37:57.640Z,97.70
2022-12-26T15:40:53.121Z,97.30
2022-12-26T15:44:02.296Z,97.30
2022-12-26T15:47:02.860Z,98.00
2022-12-26T15:50:16.580Z,97.90
2022-12-26T15:53:25.790Z,98.70
2022-12-26T15:56:36.638Z,98.60
2022-12-26T15:59:49.542Z,97.90
2022-12-26T16:02:47.236Z,98.20
2022-12-26T16:05:59.486Z,99.80
2022-12-26T16:09:22.621Z,99.90
2022-12-26T16:12:23.070Z,99.90
2022-12-26T16:15:18.615Z,99.90
2022-12-26T16:18:17.987Z,99.90
2022-12-26T16:21:25.485Z,99.90
2022-12-26T16:24:18.067Z,99.90
2022-12-26T16:27:10.082Z,99.90
2022-12-26T16:30:09.932Z,99.60
2022-12-26T16:33:01.397Z,99.90
2022-12-26T16:35:56.201Z,99.90
2022-12-26T16:38:47.882Z,99.90
2022-12-26T16:41:46.527Z,99.90
2022-12-26T16:44:43.161Z,99.90
2022-12-26T16:47:34.730Z,99.90
2022-12-26T16:50:25.918Z,99.90
2022-12-26T16:53:16.003Z,99.90
2022-12-26T16:56:23.644Z,99.90
2022-12-26T16:59:17.822Z,99.90
2022-12-26T17:02:16.590Z,99.90
2022-12-26T17:05:08.140Z,99.90
2022-12-26T17:07:59.289Z,99.90
2022-12-26T17:10:50.990Z,99.90
2022-12-26T17:13:40.499Z,99.90
2022-12-26T17:16:32.103Z,99.90
2022-12-26T17:19:27.378Z,99.90
2022-12-26T17:22:29.310Z,99.90
2022-12-26T17:25:26.473Z,99.90
2022-12-26T17:28:29.761Z,99.90
2022-12-26T17:31:23.715Z,99.90
2022-12-26T17:34:21.778Z,99.90
2022-12-26T17:37:20.986Z,99.90
2022-12-26T17:40:22.687Z,99.90
2022-12-26T17:43:23.966Z,99.90
2022-12-26T17:46:17.606Z,99.90
2022-12-26T17:49:06.312Z,99.90
2022-12-26T17:52:01.567Z,99.90
2022-12-26T17:54:53.457Z,99.90
2022-12-26T17:57:42.029Z,99.90
2022-12-26T18:00:30.783Z,99.90
2022-12-26T18:03:19.919Z,99.90
2022-12-26T18:06:08.718Z,99.90
2022-12-26T18:08:58.357Z,99.90
2022-12-26T18:11:48.368Z,99.90
2022-12-26T18:14:37.078Z,99.90
2022-12-26T18:17:25.931Z,99.90
2022-12-26T18:20:18.595Z,99.90
2022-12-26T18:23:12.338Z,99.90
2022-12-26T18:26:03.425Z,99.90
2022-12-26T18:28:54.089Z,99.90
2022-12-26T18:31:42.739Z,99.90
2022-12-26T18:34:31.286Z,99.90
2022-12-26T18:37:20.702Z,99.90
2022-12-26T18:40:26.478Z,99.90
2022-12-26T18:43:15.770Z,99.90
2022-12-26T18:46:05.895Z,99.90
2022-12-26T18:48:56.831Z,99.90
2022-12-26T18:51:45.498Z,99.90
2022-12-26T18:54:34.189Z,99.90
2022-12-26T18:57:22.811Z,99.90
2022-12-26T19:00:15.657Z,99.90
2022-12-26T19:03:05.737Z,99.90
2022-12-26T19:05:54.388Z,99.90
2022-12-26T19:08:43.362Z,99.90
2022-12-26T19:11:31.950Z,99.90
2022-12-26T19:14:22.237Z,99.90
2022-12-26T19:17:10.950Z,99.90
2022-12-26T19:20:01.050Z,99.90
2022-12-26T19:22:50.504Z,99.90
2022-12-26T19:25:39.208Z,99.90
2022-12-26T19:28:27.880Z,99.90
2022-12-26T19:31:17.715Z,92.30
2022-12-26T19:34:06.751Z,87.30
2022-12-26T19:36:56.946Z,86.50
2022-12-26T19:39:45.511Z,82.10
2022-12-26T19:42:34.826Z,82.00
2022-12-26T19:45:23.530Z,77.20
2022-12-26T19:48:12.197Z,72.40
2022-12-26T19:51:02.677Z,71.10
2022-12-26T19:53:52.767Z,68.90
2022-12-26T19:56:41.928Z,65.70
2022-12-26T19:59:30.591Z,60.50
2022-12-26T20:02:19.560Z,59.40
2022-12-26T20:05:09.420Z,59.60
2022-12-26T20:07:58.027Z,58.00
2022-12-26T20:10:48.009Z,59.60
2022-12-26T20:13:37.128Z,60.20
2022-12-26T20:17:03.819Z,59.10
2022-12-26T20:19:37.120Z,60.60
2022-12-26T20:22:25.819Z,61.20
2022-12-26T20:25:14.765Z,62.20
2022-12-26T20:28:04.901Z,62.90
2022-12-26T20:30:59.926Z,65.30
2022-12-26T20:33:50.678Z,64.70
2022-12-26T20:36:39.683Z,65.40
2022-12-26T20:39:28.540Z,64.00
2022-12-26T20:42:17.278Z,64.60
2022-12-26T20:45:08.641Z,62.70
2022-12-26T20:47:57.348Z,61.60
2022-12-26T20:50:45.909Z,63.00
2022-12-26T20:53:34.769Z,61.70
2022-12-26T20:56:23.338Z,62.30
2022-12-26T20:59:12.402Z,61.30
2022-12-26T21:02:02.494Z,62.60
2022-12-26T21:04:51.519Z,64.80
2022-12-26T21:07:40.180Z,64.30
2022-12-26T21:10:29.818Z,62.70
2022-12-26T21:13:18.448Z,57.40
2022-12-26T21:16:11.730Z,56.40
2022-12-26T21:19:02.399Z,55.00
2022-12-26T21:21:52.642Z,50.60
2022-12-26T21:24:41.256Z,46.50
2022-12-26T21:27:29.861Z,46.70
2022-12-26T21:30:18.949Z,49.60
2022-12-26T21:33:07.572Z,50.00
2022-12-26T21:35:57.560Z,48.80
2022-12-26T21:38:46.268Z,49.40
2022-12-26T21:41:34.958Z,50.10
2022-12-26T21:44:23.571Z,50.20
2022-12-26T21:47:12.437Z,53.00
2022-12-26T21:50:01.020Z,51.30
2022-12-26T21:52:51.031Z,53.70
2022-12-26T21:55:39.567Z,55.50
2022-12-26T21:58:29.329Z,57.00
2022-12-26T22:01:18.622Z,58.70
2022-12-26T22:04:21.170Z,60.10
2022-12-26T22:07:09.792Z,60.20
2022-12-26T22:09:59.816Z,60.60
2022-12-26T22:12:59.403Z,61.10
2022-12-26T22:16:05.310Z,56.70
2022-12-26T22:18:54.077Z,57.30
2022-12-26T22:21:42.607Z,58.70
2022-12-26T22:24:31.166Z,58.90
2022-12-26T22:27:21.136Z,60.40
2022-12-26T22:30:10.916Z,63.50
2022-12-26T22:32:59.486Z,63.90
2022-12-26T22:35:48.587Z,65.70
2022-12-26T22:38:38.196Z,63.90
2022-12-26T22:41:26.964Z,63.30
2022-12-26T22:44:17.047Z,62.50
2022-12-26T22:47:05.666Z,63.80
2022-12-26T22:49:54.336Z,65.30
2022-12-26T22:52:43.236Z,67.30
2022-12-26T22:55:31.880Z,69.70
2022-12-26T22:58:20.799Z,74.00
2022-12-26T23:01:15.432Z,76.10
2022-12-26T23:04:04.777Z,78.50
2022-12-26T23:06:53.827Z,79.90
2022-12-26T23:09:42.676Z,82.60
2022-12-26T23:12:46.947Z,84.20
2022-12-26T23:15:42.907Z,84.80
2022-12-26T23:18:55.752Z,85.40
2022-12-26T23:21:48.705Z,85.00
2022-12-26T23:24:37.360Z,85.00
2022-12-26T23:27:43.415Z,84.90
2022-12-26T23:30:32.268Z,85.60
2022-12-26T23:33:20.759Z,85.10
2022-12-26T23:36:11.167Z,83.40
2022-12-26T23:38:59.757Z,82.40
2022-12-26T23:41:48.789Z,82.30
2022-12-26T23:44:37.397Z,82.10
2022-12-26T23:47:26.029Z,81.90
2022-12-26T23:50:16.430Z,83.10
2022-12-26T23:53:06.789Z,83.30
2022-12-26T23:55:55.448Z,84.90
2022-12-26T23:58:44.147Z,84.60
